Terminal Aerodrome Forecast
Issued by NWS Shreveport, LA

Home | Current Version | Previous Version | Text Only | Print | Product List | Glossary On
Versions: 1 2 3 4 5 6 7 8 9 10 11 12 13 14 15 16 17 18 19 20 21 22
445
FTUS44 KSHV 301753
TAFTXK
TAF
KTXK 301753Z 3018/3118 28011KT P6SM SCT040
     FM302000 22007KT P6SM VCTS SCT045CB SCT250
      TEMPO 3022/3023 -TSRA BKN050CB
     FM310000 15006KT P6SM SCT250
     FM310700 19004KT P6SM SCT250
     FM311500 23009KT P6SM FEW250=

USA.gov is the U.S. government's official web portal to all federal, state and local government web resources and services.